sensor_id;sensor_type;location;lat;lon;timestamp;pressure;altitude;pressure_sealevel;temperature;humidity
76434;BME280;65265;53.200;6.080;2023-08-06T00:04:49;100642.16;;;13.80;100.00
76434;BME280;65265;53.200;6.080;2023-08-06T00:09:41;100639.53;;;13.77;100.00
76434;BME280;65265;53.200;6.080;2023-08-06T00:14:34;100631.81;;;13.77;100.00
76434;BME280;65265;53.200;6.080;2023-08-06T00:19:25;100626.59;;;13.74;100.00
76434;BME280;65265;53.200;6.080;2023-08-06T00:24:17;100633.59;;;13.79;100.00
76434;BME280;65265;53.200;6.080;2023-08-06T00:29:08;100629.31;;;13.80;100.00
76434;BME280;65265;53.200;6.080;2023-08-06T00:34:01;100630.19;;;13.82;100.00
76434;BME280;65265;53.200;6.080;2023-08-06T00:38:53;100633.66;;;13.82;100.00
76434;BME280;65265;53.200;6.080;2023-08-06T00:43:46;100630.13;;;13.79;100.00
76434;BME280;65265;53.200;6.080;2023-08-06T00:48:37;100630.97;;;13.78;100.00
76434;BME280;65265;53.200;6.080;2023-08-06T00:53:30;100631.03;;;13.79;100.00
76434;BME280;65265;53.200;6.080;2023-08-06T00:58:22;100635.34;;;13.80;100.00
76434;BME280;65265;53.200;6.080;2023-08-06T01:03:13;100635.28;;;13.79;100.00
76434;BME280;65265;53.200;6.080;2023-08-06T01:08:15;100637.91;;;13.82;100.00
76434;BME280;65265;53.200;6.080;2023-08-06T01:13:17;100637.97;;;13.83;100.00
76434;BME280;65265;53.200;6.080;2023-08-06T01:18:11;100639.66;;;13.83;100.00
76434;BME280;65265;53.200;6.080;2023-08-06T01:23:04;100640.59;;;13.85;100.00
76434;BME280;65265;53.200;6.080;2023-08-06T01:28:01;100636.28;;;13.84;100.00
76434;BME280;65265;53.200;6.080;2023-08-06T01:32:58;100637.97;;;13.83;100.00
76434;BME280;65265;53.200;6.080;2023-08-06T01:37:51;100635.34;;;13.82;100.00
76434;BME280;65265;53.200;6.080;2023-08-06T01:42:44;100636.28;;;13.84;100.00
76434;BME280;65265;53.200;6.080;2023-08-06T01:47:36;100622.47;;;13.80;100.00
76434;BME280;65265;53.200;6.080;2023-08-06T01:52:27;100626.72;;;13.80;100.00
76434;BME280;65265;53.200;6.080;2023-08-06T01:57:19;100624.22;;;13.81;100.00
76434;BME280;65265;53.200;6.080;2023-08-06T02:02:12;100614.72;;;13.79;100.00
76434;BME280;65265;53.200;6.080;2023-08-06T02:07:04;100611.31;;;13.80;100.00
76434;BME280;65265;53.200;6.080;2023-08-06T02:11:55;100606.19;;;13.80;100.00
76434;BME280;65265;53.200;6.080;2023-08-06T02:16:47;100608.91;;;13.86;100.00
76434;BME280;65265;53.200;6.080;2023-08-06T02:21:41;100608.00;;;13.84;100.00
76434;BME280;65265;53.200;6.080;2023-08-06T02:26:33;100601.25;;;13.89;100.00
76434;BME280;65265;53.200;6.080;2023-08-06T02:31:24;100579.69;;;13.82;100.00
76434;BME280;65265;53.200;6.080;2023-08-06T02:36:16;100587.50;;;13.87;100.00
76434;BME280;65265;53.200;6.080;2023-08-06T02:41:09;100602.03;;;13.86;100.00
76434;BME280;65265;53.200;6.080;2023-08-06T02:46:01;100580.50;;;13.81;100.00
76434;BME280;65265;53.200;6.080;2023-08-06T02:50:52;100577.06;;;13.79;100.00
76434;BME280;65265;53.200;6.080;2023-08-06T02:55:45;100581.38;;;13.82;100.00
76434;BME280;65265;53.200;6.080;2023-08-06T03:00:39;100581.25;;;13.77;100.00
76434;BME280;65265;53.200;6.080;2023-08-06T03:05:30;100576.94;;;13.75;100.00
76434;BME280;65265;53.200;6.080;2023-08-06T03:10:22;100569.97;;;13.71;100.00
76434;BME280;65265;53.200;6.080;2023-08-06T03:15:13;100559.56;;;13.65;100.00
76434;BME280;65265;53.200;6.080;2023-08-06T03:20:07;100566.38;;;13.63;100.00
76434;BME280;65265;53.200;6.080;2023-08-06T03:24:59;100556.00;;;13.60;100.00
76434;BME280;65265;53.200;6.080;2023-08-06T03:29:50;100547.34;;;13.55;100.00
76434;BME280;65265;53.200;6.080;2023-08-06T03:34:41;100555.94;;;13.57;100.00
76434;BME280;65265;53.200;6.080;2023-08-06T03:39:35;100549.13;;;13.59;100.00
76434;BME280;65265;53.200;6.080;2023-08-06T03:44:26;100550.81;;;13.55;100.00
76434;BME280;65265;53.200;6.080;2023-08-06T03:49:18;100557.63;;;13.55;100.00
76434;BME280;65265;53.200;6.080;2023-08-06T03:54:09;100564.56;;;13.59;100.00
76434;BME280;65265;53.200;6.080;2023-08-06T03:59:03;100551.53;;;13.51;100.00
76434;BME280;65265;53.200;6.080;2023-08-06T04:03:54;100558.59;;;13.60;100.00
76434;BME280;65265;53.200;6.080;2023-08-06T04:08:45;100559.47;;;13.60;100.00
76434;BME280;65265;53.200;6.080;2023-08-06T04:13:37;100564.56;;;13.59;100.00
76434;BME280;65265;53.200;6.080;2023-08-06T04:18:30;100565.50;;;13.61;100.00
76434;BME280;65265;53.200;6.080;2023-08-06T04:23:21;100568.06;;;13.61;100.00
76434;BME280;65265;53.200;6.080;2023-08-06T04:28:12;100567.25;;;13.63;100.00
76434;BME280;65265;53.200;6.080;2023-08-06T04:33:04;100557.84;;;13.64;100.00
76434;BME280;65265;53.200;6.080;2023-08-06T04:37:57;100575.06;;;13.68;100.00
76434;BME280;65265;53.200;6.080;2023-08-06T04:42:48;100567.34;;;13.68;100.00
76434;BME280;65265;53.200;6.080;2023-08-06T04:47:40;100564.72;;;13.66;100.00
76434;BME280;65265;53.200;6.080;2023-08-06T04:52:32;100571.59;;;13.66;100.00
76434;BME280;65265;53.200;6.080;2023-08-06T04:57:25;100570.66;;;13.62;100.00
76434;BME280;65265;53.200;6.080;2023-08-06T05:02:17;100570.69;;;13.64;100.00
76434;BME280;65265;53.200;6.080;2023-08-06T05:07:08;100570.63;;;13.61;100.00
76434;BME280;65265;53.200;6.080;2023-08-06T05:12:00;100581.03;;;13.67;100.00
76434;BME280;65265;53.200;6.080;2023-08-06T05:16:53;100582.00;;;13.72;100.00
76434;BME280;65265;53.200;6.080;2023-08-06T05:21:44;100581.19;;;13.73;100.00
76434;BME280;65265;53.200;6.080;2023-08-06T05:26:36;100582.09;;;13.76;100.00
76434;BME280;65265;53.200;6.080;2023-08-06T05:31:27;100577.84;;;13.77;100.00
76434;BME280;65265;53.200;6.080;2023-08-06T05:36:20;100586.59;;;13.85;100.00
76434;BME280;65265;53.200;6.080;2023-08-06T05:41:11;100597.78;;;13.87;100.00
76434;BME280;65265;53.200;6.080;2023-08-06T05:46:03;100598.72;;;13.92;100.00
76434;BME280;65265;53.200;6.080;2023-08-06T05:50:54;100597.09;;;13.95;100.00
76434;BME280;65265;53.200;6.080;2023-08-06T05:55:47;100592.91;;;13.99;100.00
76434;BME280;65265;53.200;6.080;2023-08-06T06:00:39;100596.44;;;14.04;100.00
76434;BME280;65265;53.200;6.080;2023-08-06T06:05:30;100603.50;;;14.12;100.00
76434;BME280;65265;53.200;6.080;2023-08-06T06:10:22;100597.56;;;14.16;100.00
76434;BME280;65265;53.200;6.080;2023-08-06T06:15:15;100614.19;;;14.29;100.00
76434;BME280;65265;53.200;6.080;2023-08-06T06:20:07;100609.28;;;14.41;100.00
76434;BME280;65265;53.200;6.080;2023-08-06T06:24:58;100611.22;;;14.50;100.00
76434;BME280;65265;53.200;6.080;2023-08-06T06:29:50;100613.09;;;14.60;100.00
76434;BME280;65265;53.200;6.080;2023-08-06T06:34:44;100611.59;;;14.71;100.00
76434;BME280;65265;53.200;6.080;2023-08-06T06:39:35;100609.34;;;14.88;100.00
76434;BME280;65265;53.200;6.080;2023-08-06T06:44:27;100603.56;;;14.99;100.00
76434;BME280;65265;53.200;6.080;2023-08-06T06:49:18;100608.13;;;15.14;100.00
76434;BME280;65265;53.200;6.080;2023-08-06T06:54:11;100612.63;;;15.25;100.00
76434;BME280;65265;53.200;6.080;2023-08-06T06:59:02;100607.63;;;15.31;100.00
76434;BME280;65265;53.200;6.080;2023-08-06T07:03:54;100613.78;;;15.41;100.00
76434;BME280;65265;53.200;6.080;2023-08-06T07:08:45;100613.06;;;15.49;100.00
76434;BME280;65265;53.200;6.080;2023-08-06T07:13:38;100620.03;;;15.53;100.00
76434;BME280;65265;53.200;6.080;2023-08-06T07:18:30;100611.50;;;15.59;100.00
76434;BME280;65265;53.200;6.080;2023-08-06T07:23:22;100626.28;;;15.70;100.00
76434;BME280;65265;53.200;6.080;2023-08-06T07:28:14;100633.19;;;15.71;100.00
76434;BME280;65265;53.200;6.080;2023-08-06T07:33:07;100634.22;;;15.81;100.00
76434;BME280;65265;53.200;6.080;2023-08-06T07:37:59;100631.72;;;15.87;100.00
76434;BME280;65265;53.200;6.080;2023-08-06T07:42:50;100633.66;;;16.01;100.00
76434;BME280;65265;53.200;6.080;2023-08-06T07:47:42;100633.91;;;16.19;100.00
76434;BME280;65265;53.200;6.080;2023-08-06T07:52:35;100623.94;;;16.43;100.00
76434;BME280;65265;53.200;6.080;2023-08-06T07:57:27;100624.97;;;16.57;100.00
76434;BME280;65265;53.200;6.080;2023-08-06T08:02:19;100636.47;;;16.82;100.00
76434;BME280;65265;53.200;6.080;2023-08-06T08:07:10;100628.00;;;16.94;100.00
76434;BME280;65265;53.200;6.080;2023-08-06T08:12:04;100629.13;;;17.19;100.00
76434;BME280;65265;53.200;6.080;2023-08-06T08:16:56;100634.44;;;17.34;100.00
76434;BME280;65265;53.200;6.080;2023-08-06T08:21:47;100631.91;;;17.38;100.00
76434;BME280;65265;53.200;6.080;2023-08-06T08:26:38;100631.19;;;17.50;100.00
76434;BME280;65265;53.200;6.080;2023-08-06T08:31:31;100633.00;;;17.64;100.00
76434;BME280;65265;53.200;6.080;2023-08-06T08:36:29;100633.16;;;17.84;100.00
76434;BME280;65265;53.200;6.080;2023-08-06T08:41:20;100630.69;;;18.00;100.00
76434;BME280;65265;53.200;6.080;2023-08-06T08:46:13;100624.72;;;18.15;100.00
76434;BME280;65265;53.200;6.080;2023-08-06T08:51:06;100629.06;;;18.20;100.00
76434;BME280;65265;53.200;6.080;2023-08-06T08:55:59;100627.47;;;18.36;100.00
76434;BME280;65265;53.200;6.080;2023-08-06T09:00:50;100634.47;;;18.52;100.00
76434;BME280;65265;53.200;6.080;2023-08-06T09:05:43;100633.66;;;18.71;100.00
76434;BME280;65265;53.200;6.080;2023-08-06T09:10:36;100631.94;;;18.67;100.00
76434;BME280;65265;53.200;6.080;2023-08-06T09:15:29;100631.97;;;18.79;100.00
76434;BME280;65265;53.200;6.080;2023-08-06T09:20:21;100633.75;;;19.04;100.00
76434;BME280;65265;53.200;6.080;2023-08-06T09:25:20;100642.50;;;19.25;100.00
76434;BME280;65265;53.200;6.080;2023-08-06T09:30:29;100645.97;;;19.32;100.00
76434;BME280;65265;53.200;6.080;2023-08-06T09:35:21;100651.19;;;19.64;100.00
76434;BME280;65265;53.200;6.080;2023-08-06T09:40:25;100650.31;;;19.65;100.00
76434;BME280;65265;53.200;6.080;2023-08-06T09:45:19;100662.41;;;19.74;100.00
76434;BME280;65265;53.200;6.080;2023-08-06T09:50:15;100653.75;;;19.87;98.56
76434;BME280;65265;53.200;6.080;2023-08-06T09:55:07;100657.22;;;20.11;99.63
76434;BME280;65265;53.200;6.080;2023-08-06T09:59:59;100659.75;;;20.35;95.38
76434;BME280;65265;53.200;6.080;2023-08-06T10:04:52;100663.19;;;20.57;95.60
76434;BME280;65265;53.200;6.080;2023-08-06T10:09:46;100664.03;;;20.57;91.62
76434;BME280;65265;53.200;6.080;2023-08-06T10:14:38;100655.41;;;20.46;93.42
76434;BME280;65265;53.200;6.080;2023-08-06T10:19:32;100660.56;;;20.61;93.11
76434;BME280;65265;53.200;6.080;2023-08-06T10:24:25;100661.38;;;20.69;92.21
76434;BME280;65265;53.200;6.080;2023-08-06T10:29:35;100657.09;;;20.61;91.28
76434;BME280;65265;53.200;6.080;2023-08-06T10:34:53;100664.00;;;20.60;90.92
76434;BME280;65265;53.200;6.080;2023-08-06T10:39:49;100659.63;;;20.74;92.80
76434;BME280;65265;53.200;6.080;2023-08-06T10:45:11;100666.53;;;20.83;91.84
76434;BME280;65265;53.200;6.080;2023-08-06T10:50:04;100659.47;;;21.15;91.81
76434;BME280;65265;53.200;6.080;2023-08-06T10:54:57;100662.03;;;21.19;88.13
76434;BME280;65265;53.200;6.080;2023-08-06T10:59:49;100668.13;;;21.18;86.81
76434;BME280;65265;53.200;6.080;2023-08-06T11:04:41;100666.38;;;21.22;87.53
76434;BME280;65265;53.200;6.080;2023-08-06T11:09:32;100664.59;;;21.25;87.12
76434;BME280;65265;53.200;6.080;2023-08-06T11:14:25;100666.38;;;21.20;85.90
76434;BME280;65265;53.200;6.080;2023-08-06T11:19:17;100671.59;;;21.17;87.67
76434;BME280;65265;53.200;6.080;2023-08-06T11:24:09;100666.38;;;21.14;87.27
76434;BME280;65265;53.200;6.080;2023-08-06T11:29:02;100665.59;;;21.06;87.94
76434;BME280;65265;53.200;6.080;2023-08-06T11:33:55;100664.69;;;21.10;88.07
76434;BME280;65265;53.200;6.080;2023-08-06T11:38:47;100668.19;;;21.03;85.76
76434;BME280;65265;53.200;6.080;2023-08-06T11:43:39;100673.44;;;20.91;84.86
76434;BME280;65265;53.200;6.080;2023-08-06T11:48:30;100666.38;;;21.22;85.39
76434;BME280;65265;53.200;6.080;2023-08-06T11:53:27;100675.91;;;21.21;84.21
76434;BME280;65265;53.200;6.080;2023-08-06T11:58:19;100670.78;;;21.03;83.00
76434;BME280;65265;53.200;6.080;2023-08-06T12:03:10;100663.91;;;20.81;83.11
76434;BME280;65265;53.200;6.080;2023-08-06T12:08:02;100663.09;;;20.85;86.00
76434;BME280;65265;53.200;6.080;2023-08-06T12:12:55;100668.28;;;20.88;86.27
76434;BME280;65265;53.200;6.080;2023-08-06T12:17:47;100675.97;;;21.03;83.84
76434;BME280;65265;53.200;6.080;2023-08-06T12:22:39;100685.50;;;21.10;84.39
76434;BME280;65265;53.200;6.080;2023-08-06T12:27:30;100682.06;;;21.04;85.17
76434;BME280;65265;53.200;6.080;2023-08-06T12:32:23;100685.59;;;20.85;83.79
76434;BME280;65265;53.200;6.080;2023-08-06T12:37:14;100670.78;;;21.03;85.04
76434;BME280;65265;53.200;6.080;2023-08-06T12:42:06;100675.22;;;20.83;84.14
76434;BME280;65265;53.200;6.080;2023-08-06T12:46:57;100689.06;;;20.81;83.09
76434;BME280;65265;53.200;6.080;2023-08-06T12:51:50;100683.91;;;20.73;83.46
76434;BME280;65265;53.200;6.080;2023-08-06T12:56:42;100685.66;;;20.61;82.55
76434;BME280;65265;53.200;6.080;2023-08-06T13:01:33;100686.56;;;20.57;83.86
76434;BME280;65265;53.200;6.080;2023-08-06T13:06:25;100690.72;;;21.01;80.91
76434;BME280;65265;53.200;6.080;2023-08-06T13:11:17;100688.78;;;21.36;82.30
76434;BME280;65265;53.200;6.080;2023-08-06T13:16:09;100691.97;;;21.83;78.27
76434;BME280;65265;53.200;6.080;2023-08-06T13:21:00;100689.41;;;21.77;79.39
76434;BME280;65265;53.200;6.080;2023-08-06T13:25:52;100700.34;;;22.15;76.48
76434;BME280;65265;53.200;6.080;2023-08-06T13:30:45;100693.94;;;22.49;75.78
76434;BME280;65265;53.200;6.080;2023-08-06T13:35:37;100696.41;;;22.64;72.24
76434;BME280;65265;53.200;6.080;2023-08-06T13:40:28;100701.03;;;23.13;72.56
76434;BME280;65265;53.200;6.080;2023-08-06T13:45:20;100710.78;;;22.99;71.18
76434;BME280;65265;53.200;6.080;2023-08-06T13:50:13;100700.34;;;22.15;70.92
76434;BME280;65265;53.200;6.080;2023-08-06T13:55:05;100716.75;;;22.26;73.75
76434;BME280;65265;53.200;6.080;2023-08-06T13:59:57;100714.88;;;22.44;72.64
76434;BME280;65265;53.200;6.080;2023-08-06T14:04:48;100721.31;;;22.03;73.67
76434;BME280;65265;53.200;6.080;2023-08-06T14:09:41;100731.72;;;22.03;71.62
76434;BME280;65265;53.200;6.080;2023-08-06T14:14:34;100736.31;;;21.71;74.27
76434;BME280;65265;53.200;6.080;2023-08-06T14:19:25;100743.19;;;21.81;73.90
76434;BME280;65265;53.200;6.080;2023-08-06T14:24:17;100741.34;;;21.95;73.35
76434;BME280;65265;53.200;6.080;2023-08-06T14:29:10;100742.25;;;21.94;74.22
76434;BME280;65265;53.200;6.080;2023-08-06T14:34:01;100752.72;;;21.82;71.82
76434;BME280;65265;53.200;6.080;2023-08-06T14:38:53;100743.09;;;21.96;74.21
76434;BME280;65265;53.200;6.080;2023-08-06T14:43:44;100749.16;;;21.95;72.54
76434;BME280;65265;53.200;6.080;2023-08-06T14:48:37;100754.97;;;22.24;74.19
76434;BME280;65265;53.200;6.080;2023-08-06T14:53:29;100759.03;;;22.61;71.91
76434;BME280;65265;53.200;6.080;2023-08-06T14:58:20;100759.56;;;22.91;70.87
76434;BME280;65265;53.200;6.080;2023-08-06T15:03:12;100761.38;;;22.85;67.90
76434;BME280;65265;53.200;6.080;2023-08-06T15:08:05;100775.38;;;22.75;70.04
76434;BME280;65265;53.200;6.080;2023-08-06T15:12:56;100777.91;;;22.82;68.42
76434;BME280;65265;53.200;6.080;2023-08-06T15:17:49;100778.50;;;23.04;70.05
76434;BME280;65265;53.200;6.080;2023-08-06T15:22:41;100795.81;;;23.12;68.00
76434;BME280;65265;53.200;6.080;2023-08-06T15:27:33;100793.94;;;23.25;69.58
76434;BME280;65265;53.200;6.080;2023-08-06T15:32:25;100808.56;;;23.41;69.73
76434;BME280;65265;53.200;6.080;2023-08-06T15:37:17;100810.59;;;23.15;69.79
76434;BME280;65265;53.200;6.080;2023-08-06T15:42:09;100813.84;;;22.50;73.26
76434;BME280;65265;53.200;6.080;2023-08-06T15:47:02;100822.00;;;22.04;74.00
76434;BME280;65265;53.200;6.080;2023-08-06T15:51:54;100835.28;;;21.64;79.03
76434;BME280;65265;53.200;6.080;2023-08-06T15:56:45;100826.72;;;21.32;80.41
76434;BME280;65265;53.200;6.080;2023-08-06T16:01:36;100838.09;;;21.05;78.58
76434;BME280;65265;53.200;6.080;2023-08-06T16:06:29;100842.47;;;20.88;83.30
76434;BME280;65265;53.200;6.080;2023-08-06T16:11:21;100845.91;;;20.83;82.40
76434;BME280;65265;53.200;6.080;2023-08-06T16:16:12;100847.66;;;20.69;84.25
76434;BME280;65265;53.200;6.080;2023-08-06T16:21:03;100846.78;;;20.71;83.19
76434;BME280;65265;53.200;6.080;2023-08-06T16:25:56;100845.91;;;20.71;82.27
76434;BME280;65265;53.200;6.080;2023-08-06T16:30:48;100841.59;;;20.56;85.11
76434;BME280;65265;53.200;6.080;2023-08-06T16:35:39;100855.47;;;20.61;79.41
76434;BME280;65265;53.200;6.080;2023-08-06T16:40:31;100862.38;;;20.32;81.30
76434;BME280;65265;53.200;6.080;2023-08-06T16:45:24;100865.00;;;20.22;82.03
76434;BME280;65265;53.200;6.080;2023-08-06T16:50:15;100870.94;;;19.94;82.04
76434;BME280;65265;53.200;6.080;2023-08-06T16:55:08;100881.25;;;19.65;85.09
76434;BME280;65265;53.200;6.080;2023-08-06T16:59:59;100892.34;;;19.33;85.48
76434;BME280;65265;53.200;6.080;2023-08-06T17:04:52;100888.69;;;19.06;86.40
76434;BME280;65265;53.200;6.080;2023-08-06T17:09:44;100892.81;;;18.77;89.73
76434;BME280;65265;53.200;6.080;2023-08-06T17:14:35;100898.59;;;18.47;90.86
76434;BME280;65265;53.200;6.080;2023-08-06T17:19:26;100896.75;;;18.33;96.35
76434;BME280;65265;53.200;6.080;2023-08-06T17:24:20;100908.72;;;18.23;94.93
76434;BME280;65265;53.200;6.080;2023-08-06T17:29:11;100899.13;;;18.13;93.92
76434;BME280;65265;53.200;6.080;2023-08-06T17:34:03;100896.47;;;18.10;95.36
76434;BME280;65265;53.200;6.080;2023-08-06T17:38:54;100901.56;;;18.01;95.13
76434;BME280;65265;53.200;6.080;2023-08-06T17:43:47;100904.94;;;17.94;97.63
76434;BME280;65265;53.200;6.080;2023-08-06T17:48:39;100909.19;;;17.91;97.64
76434;BME280;65265;53.200;6.080;2023-08-06T17:53:30;100913.47;;;17.86;97.44
76434;BME280;65265;53.200;6.080;2023-08-06T17:58:22;100910.84;;;17.83;97.90
76434;BME280;65265;53.200;6.080;2023-08-06T18:03:14;100919.50;;;17.85;97.22
76434;BME280;65265;53.200;6.080;2023-08-06T18:08:07;100909.09;;;17.82;96.58
76434;BME280;65265;53.200;6.080;2023-08-06T18:12:58;100903.00;;;17.74;96.81
76434;BME280;65265;53.200;6.080;2023-08-06T18:17:50;100908.94;;;17.70;98.41
76434;BME280;65265;53.200;6.080;2023-08-06T18:22:43;100905.47;;;17.65;99.26
76434;BME280;65265;53.200;6.080;2023-08-06T18:27:34;100921.78;;;17.61;97.33
76434;BME280;65265;53.200;6.080;2023-08-06T18:32:26;100922.56;;;17.54;98.78
76434;BME280;65265;53.200;6.080;2023-08-06T18:37:17;100923.34;;;17.48;100.00
76434;BME280;65265;53.200;6.080;2023-08-06T18:42:10;100927.69;;;17.51;100.00
76434;BME280;65265;53.200;6.080;2023-08-06T18:47:02;100922.50;;;17.49;100.00
76434;BME280;65265;53.200;6.080;2023-08-06T18:51:54;100928.53;;;17.48;100.00
76434;BME280;65265;53.200;6.080;2023-08-06T18:56:45;100915.41;;;17.35;100.00
76434;BME280;65265;53.200;6.080;2023-08-06T19:01:38;100933.53;;;17.36;100.00
76434;BME280;65265;53.200;6.080;2023-08-06T19:06:30;100935.97;;;17.29;100.00
76434;BME280;65265;53.200;6.080;2023-08-06T19:11:22;100935.03;;;17.22;100.00
76434;BME280;65265;53.200;6.080;2023-08-06T19:16:13;100928.88;;;17.16;100.00
76434;BME280;65265;53.200;6.080;2023-08-06T19:21:06;100936.50;;;17.08;100.00
76434;BME280;65265;53.200;6.080;2023-08-06T19:25:59;100937.28;;;17.03;100.00
76434;BME280;65265;53.200;6.080;2023-08-06T19:30:51;100938.91;;;16.96;100.00
76434;BME280;65265;53.200;6.080;2023-08-06T19:35:46;100943.97;;;16.89;100.00
76434;BME280;65265;53.200;6.080;2023-08-06T19:40:40;100948.94;;;16.77;100.00
76434;BME280;65265;53.200;6.080;2023-08-06T19:45:32;100946.13;;;16.62;100.00
76434;BME280;65265;53.200;6.080;2023-08-06T19:50:23;100951.16;;;16.56;100.00
76434;BME280;65265;53.200;6.080;2023-08-06T19:55:15;100952.59;;;16.41;100.00
76434;BME280;65265;53.200;6.080;2023-08-06T20:00:09;100961.88;;;16.31;100.00
76434;BME280;65265;53.200;6.080;2023-08-06T20:05:00;100955.63;;;16.22;100.00
76434;BME280;65265;53.200;6.080;2023-08-06T20:09:52;100959.81;;;16.15;100.00
76434;BME280;65265;53.200;6.080;2023-08-06T20:14:43;100958.97;;;16.15;100.00
76434;BME280;65265;53.200;6.080;2023-08-06T20:19:37;100958.94;;;16.13;100.00
76434;BME280;65265;53.200;6.080;2023-08-06T20:24:30;100945.84;;;16.04;100.00
76434;BME280;65265;53.200;6.080;2023-08-06T20:29:21;100958.03;;;16.11;100.00
76434;BME280;65265;53.200;6.080;2023-08-06T20:34:13;100965.72;;;16.10;100.00
76434;BME280;65265;53.200;6.080;2023-08-06T20:39:06;100968.31;;;16.10;100.00
76434;BME280;65265;53.200;6.080;2023-08-06T20:43:57;100971.72;;;16.07;100.00
76434;BME280;65265;53.200;6.080;2023-08-06T20:48:49;100969.16;;;16.09;100.00
76434;BME280;65265;53.200;6.080;2023-08-06T20:53:40;100973.41;;;16.05;100.00
76434;BME280;65265;53.200;6.080;2023-08-06T20:58:33;100969.06;;;16.04;100.00
76434;BME280;65265;53.200;6.080;2023-08-06T21:03:25;100969.09;;;16.06;100.00
76434;BME280;65265;53.200;6.080;2023-08-06T21:08:17;100970.84;;;16.07;100.00
76434;BME280;65265;53.200;6.080;2023-08-06T21:13:09;100963.00;;;16.01;100.00
76434;BME280;65265;53.200;6.080;2023-08-06T21:18:02;100973.31;;;16.01;100.00
76434;BME280;65265;53.200;6.080;2023-08-06T21:22:56;100974.13;;;15.98;100.00
76434;BME280;65265;53.200;6.080;2023-08-06T21:27:47;100978.28;;;15.93;100.00
76434;BME280;65265;53.200;6.080;2023-08-06T21:32:39;100986.88;;;15.92;100.00
76434;BME280;65265;53.200;6.080;2023-08-06T21:37:32;100986.81;;;15.89;100.00
76434;BME280;65265;53.200;6.080;2023-08-06T21:42:24;100988.50;;;15.87;100.00
76434;BME280;65265;53.200;6.080;2023-08-06T21:47:15;100996.16;;;15.83;100.00
76434;BME280;65265;53.200;6.080;2023-08-06T21:52:07;100995.19;;;15.79;100.00
76434;BME280;65265;53.200;6.080;2023-08-06T21:57:00;101000.31;;;15.76;100.00
76434;BME280;65265;53.200;6.080;2023-08-06T22:01:52;100992.47;;;15.72;100.00
76434;BME280;65265;53.200;6.080;2023-08-06T22:06:43;101001.03;;;15.71;100.00
76434;BME280;65265;53.200;6.080;2023-08-06T22:11:34;100995.88;;;15.71;100.00
76434;BME280;65265;53.200;6.080;2023-08-06T22:16:28;101003.66;;;15.72;100.00
76434;BME280;65265;53.200;6.080;2023-08-06T22:21:19;101005.41;;;15.73;100.00
76434;BME280;65265;53.200;6.080;2023-08-06T22:26:10;101003.66;;;15.72;100.00
76434;BME280;65265;53.200;6.080;2023-08-06T22:31:03;101001.03;;;15.71;100.00
76434;BME280;65265;53.200;6.080;2023-08-06T22:35:56;100996.63;;;15.65;100.00
76434;BME280;65265;53.200;6.080;2023-08-06T22:40:48;100999.16;;;15.62;100.00
76434;BME280;65265;53.200;6.080;2023-08-06T22:45:39;100988.72;;;15.58;100.00
76434;BME280;65265;53.200;6.080;2023-08-06T22:50:31;100989.38;;;15.49;100.00
76434;BME280;65265;53.200;6.080;2023-08-06T22:55:24;100985.91;;;15.47;100.00
76434;BME280;65265;53.200;6.080;2023-08-06T23:00:15;100990.94;;;15.41;100.00
76434;BME280;65265;53.200;6.080;2023-08-06T23:05:07;100983.94;;;15.37;100.00
76434;BME280;65265;53.200;6.080;2023-08-06T23:09:59;100988.25;;;15.37;100.00
76434;BME280;65265;53.200;6.080;2023-08-06T23:14:52;100986.47;;;15.34;100.00
76434;BME280;65265;53.200;6.080;2023-08-06T23:19:44;100999.34;;;15.34;100.00
76434;BME280;65265;53.200;6.080;2023-08-06T23:24:35;100995.94;;;15.35;100.00
76434;BME280;65265;53.200;6.080;2023-08-06T23:29:27;101001.13;;;15.37;100.00
76434;BME280;65265;53.200;6.080;2023-08-06T23:34:20;100995.94;;;15.35;100.00
76434;BME280;65265;53.200;6.080;2023-08-06T23:39:12;100987.31;;;15.33;100.00
76434;BME280;65265;53.200;6.080;2023-08-06T23:44:03;100994.03;;;15.28;100.00
76434;BME280;65265;53.200;6.080;2023-08-06T23:48:55;100996.53;;;15.25;100.00
76434;BME280;65265;53.200;6.080;2023-08-06T23:53:48;100999.03;;;15.22;100.00
76434;BME280;65265;53.200;6.080;2023-08-06T23:58:41;100990.41;;;15.20;100.00
